Time;durP1;ratioP1;P1;durP2;ratioP2;P2;SDS_P1;SDS_P2;PMS_P1;PMS_P2;Temp;Humidity;BMP_temperature;BMP_pressure;BME280_temperature;BME280_humidity;BME280_pressure;Samples;Min_cycle;Max_cycle;Signal;HPM_P1;HPM_P2
2021/03/29 00:00:30;;;;;;;;;;;;;;;6.60;59.42;100878.58;1713090;83;21361;-63
2021/03/29 00:02:59;;;;;;;;;;;;;;;6.56;59.87;100878.09;1712114;83;20300;-63
2021/03/29 00:05:30;;;;;;;;;;;;;;;6.52;59.80;100876.78;1713085;81;20202;-61
2021/03/29 00:08:16;;;;;;;;;;;;;;;6.48;59.79;100872.84;1713127;83;20726;-62
2021/03/29 00:10:47;;;;;;;;;;;;;;;6.48;59.73;100872.34;1655595;86;20238;-62
2021/03/29 00:13:16;;;;;;;;;;;;;;;6.53;59.88;100873.64;1651430;85;20153;-62
2021/03/29 00:15:47;;;;;;;;;;;;;;;6.48;60.20;100875.52;1653528;86;20233;-62
2021/03/29 00:18:16;;;;;;;;;;;;;;;6.40;60.02;100880.89;1712580;83;20144;-60
2021/03/29 00:20:57;;;;;;;;;;;;;;;6.37;60.47;100876.73;1711827;82;20143;-61
2021/03/29 00:23:25;;;;;;;;;;;;;;;6.36;60.46;100878.25;1712889;83;20281;-61
2021/03/29 00:25:53;;;;;;;;;;;;;;;6.36;60.71;100881.77;1713037;83;21331;-60
2021/03/29 00:28:20;;;;;;;;;;;;;;;6.30;61.00;100885.11;1712012;83;20283;-60
2021/03/29 00:30:49;;;;;;;;;;;;;;;6.16;61.42;100884.56;1710393;82;20137;-61
2021/03/29 00:33:17;;;;;;;;;;;;;;;6.03;61.95;100879.30;1713654;82;20571;-63
2021/03/29 00:35:47;;;;;;;;;;;;;;;5.96;62.18;100878.30;1674602;82;20198;-60
2021/03/29 00:38:15;;;;;;;;;;;;;;;5.92;62.47;100877.84;1710825;82;21356;-60
2021/03/29 00:40:47;;;;;;;;;;;;;;;5.91;62.43;100876.17;1711921;83;20161;-61
2021/03/29 00:43:17;;;;;;;;;;;;;;;5.91;62.63;100880.16;1718361;82;20228;-60
2021/03/29 00:45:46;;;;;;;;;;;;;;;5.91;62.67;100880.68;1677301;84;20127;-62
2021/03/29 00:48:16;;;;;;;;;;;;;;;5.89;62.92;100876.86;1687066;84;20235;-61
2021/03/29 00:50:48;;;;;;;;;;;;;;;5.88;62.96;100880.52;1683760;84;21380;-60
2021/03/29 00:53:17;;;;;;;;;;;;;;;5.88;62.96;100875.71;1683750;84;20277;-61
2021/03/29 00:55:47;;;;;;;;;;;;;;;5.90;62.89;100881.67;1692444;83;20228;-61
2021/03/29 00:58:18;;;;;;;;;;;;;;;5.96;62.82;100879.64;1692640;83;20249;-61
2021/03/29 01:00:50;;;;;;;;;;;;;;;6.00;62.84;100882.31;1688196;84;20222;-61
2021/03/29 01:03:22;;;;;;;;;;;;;;;6.02;62.81;100881.66;1699932;83;21217;-61
2021/03/29 01:05:58;;;;;;;;;;;;;;;6.02;62.75;100880.80;1690875;84;20250;-61
2021/03/29 01:08:26;;;;;;;;;;;;;;;6.03;62.66;100879.30;1691141;84;20218;-61
2021/03/29 01:10:54;;;;;;;;;;;;;;;6.06;62.67;100882.94;1659493;85;20548;-61
2021/03/29 01:13:23;;;;;;;;;;;;;;;6.05;62.68;100880.45;1717477;82;20275;-60
2021/03/29 01:15:51;;;;;;;;;;;;;;;6.04;62.71;100881.48;1692849;83;22302;-63
2021/03/29 01:18:19;;;;;;;;;;;;;;;6.02;62.84;100882.98;1692150;84;20226;-61
2021/03/29 01:20:59;;;;;;;;;;;;;;;6.01;62.96;100885.80;1696759;83;20491;-61
2021/03/29 01:23:27;;;;;;;;;;;;;;;5.98;63.12;100886.14;1691888;84;20266;-61
2021/03/29 01:26:04;;;;;;;;;;;;;;;5.95;63.40;100887.31;1689734;84;20729;-61
2021/03/29 01:28:32;;;;;;;;;;;;;;;5.97;63.42;100889.32;1688907;84;21231;-60
2021/03/29 01:30:59;;;;;;;;;;;;;;;5.95;63.53;100888.14;1695589;83;20257;-60
2021/03/29 01:33:26;;;;;;;;;;;;;;;5.96;63.53;100887.63;1691329;84;20503;-61
2021/03/29 01:35:58;;;;;;;;;;;;;;;5.99;63.59;100891.80;1696798;83;20161;-61
2021/03/29 01:38:28;;;;;;;;;;;;;;;5.96;63.69;100885.81;1690896;84;20562;-61
2021/03/29 01:40:56;;;;;;;;;;;;;;;5.98;63.80;100887.48;1694289;83;21280;-61
2021/03/29 01:43:24;;;;;;;;;;;;;;;6.02;63.76;100895.45;1689246;84;20782;-60
2021/03/29 01:45:51;;;;;;;;;;;;;;;6.07;63.70;100886.45;1672293;83;20540;-61
2021/03/29 01:48:19;;;;;;;;;;;;;;;6.09;63.58;100891.08;1692833;84;20287;-61
2021/03/29 01:50:47;;;;;;;;;;;;;;;6.08;63.81;100900.91;1692216;84;20219;-61
2021/03/29 01:53:14;;;;;;;;;;;;;;;6.02;63.90;100894.11;1689152;84;22372;-61
2021/03/29 01:55:42;;;;;;;;;;;;;;;5.97;63.90;100894.64;1694207;82;20547;-61
2021/03/29 01:58:10;;;;;;;;;;;;;;;5.99;64.19;100891.80;1680135;84;20280;-62
2021/03/29 02:00:49;;;;;;;;;;;;;;;5.96;64.39;100892.95;1687485;84;20752;-61
2021/03/29 02:03:16;;;;;;;;;;;;;;;5.92;64.72;100888.48;1692062;84;20742;-61
2021/03/29 02:05:45;;;;;;;;;;;;;;;5.87;64.95;100890.83;1687581;84;21339;-60
2021/03/29 02:08:15;;;;;;;;;;;;;;;5.87;65.14;100893.48;1694168;84;20216;-61
2021/03/29 02:10:45;;;;;;;;;;;;;;;5.84;65.15;100887.70;1681794;84;20139;-61
2021/03/29 02:13:14;;;;;;;;;;;;;;;5.84;65.25;100887.19;1695807;84;20258;-62
2021/03/29 02:15:44;;;;;;;;;;;;;;;5.85;65.37;100889.36;1685251;84;20222;-60
2021/03/29 02:18:15;;;;;;;;;;;;;;;5.81;65.38;100888.87;1693701;84;21360;-62
2021/03/29 02:20:43;;;;;;;;;;;;;;;5.75;65.55;100889.06;1692658;84;21205;-63
2021/03/29 02:23:10;;;;;;;;;;;;;;;5.70;65.56;100882.62;1693045;83;20333;-63
2021/03/29 02:25:39;;;;;;;;;;;;;;;5.74;65.79;100894.55;1691526;83;20172;-64
2021/03/29 02:28:07;;;;;;;;;;;;;;;5.69;65.85;100883.11;1684932;84;20229;-64
2021/03/29 02:30:39;;;;;;;;;;;;;;;5.65;66.14;100889.77;1695291;84;21371;-63
2021/03/29 02:33:09;;;;;;;;;;;;;;;5.58;66.40;100894.11;1689630;84;20706;-63
2021/03/29 02:35:37;;;;;;;;;;;;;;;5.49;66.65;100892.02;1688785;84;20322;-63
2021/03/29 02:38:06;;;;;;;;;;;;;;;5.48;66.81;100900.14;1692874;84;20725;-64
2021/03/29 02:40:34;;;;;;;;;;;;;;;5.43;66.93;100897.52;1694241;84;20451;-63
2021/03/29 02:43:02;;;;;;;;;;;;;;;5.33;67.38;100896.88;1695482;84;21216;-63
2021/03/29 02:45:34;;;;;;;;;;;;;;;5.26;67.78;100896.72;1667654;84;20507;-64
2021/03/29 02:48:04;;;;;;;;;;;;;;;5.27;68.01;100896.24;1697305;83;20565;-63
2021/03/29 02:50:32;;;;;;;;;;;;;;;5.30;68.36;100903.88;1692895;84;20546;-63
2021/03/29 02:53:02;;;;;;;;;;;;;;;5.30;68.40;100901.69;1688157;83;20254;-63
2021/03/29 02:55:31;;;;;;;;;;;;;;;5.28;68.47;100905.03;1687983;84;21426;-60
2021/03/29 02:57:59;;;;;;;;;;;;;;;5.28;68.58;100902.38;1696197;83;20651;-60
2021/03/29 03:00:27;;;;;;;;;;;;;;;5.26;68.82;100908.69;1689441;84;20217;-61
2021/03/29 03:02:56;;;;;;;;;;;;;;;5.28;69.00;100910.35;1691833;84;20231;-59
2021/03/29 03:05:26;;;;;;;;;;;;;;;5.31;68.99;100910.02;1695037;83;20228;-63
2021/03/29 03:07:54;;;;;;;;;;;;;;;5.33;69.10;100908.84;1697778;83;22300;-62
2021/03/29 03:10:22;;;;;;;;;;;;;;;5.34;69.07;100911.81;1689078;84;20249;-61
2021/03/29 03:12:50;;;;;;;;;;;;;;;5.37;69.25;100919.95;1691012;84;20246;-64
2021/03/29 03:15:23;;;;;;;;;;;;;;;5.38;69.19;100915.80;1696494;83;20151;-64
2021/03/29 03:17:51;;;;;;;;;;;;;;;5.41;69.03;100918.11;1694595;84;20581;-63
2021/03/29 03:20:20;;;;;;;;;;;;;;;5.46;68.91;100924.25;1691646;84;21169;-60
2021/03/29 03:23:04;;;;;;;;;;;;;;;5.51;68.83;100920.59;1687180;84;20323;-62
2021/03/29 03:25:36;;;;;;;;;;;;;;;5.65;68.73;100926.19;1675458;84;20176;-61
2021/03/29 03:28:05;;;;;;;;;;;;;;;5.74;68.53;100936.64;1696323;83;20271;-62
2021/03/29 03:30:35;;;;;;;;;;;;;;;5.70;68.44;100938.49;1691831;84;20291;-63
2021/03/29 03:33:04;;;;;;;;;;;;;;;5.63;68.51;100939.66;1690756;84;21399;-62
2021/03/29 03:35:33;;;;;;;;;;;;;;;5.54;68.51;100945.51;1691497;84;20268;-62
2021/03/29 03:38:10;;;;;;;;;;;;;;;5.50;68.67;100946.84;1690655;84;20189;-61
2021/03/29 03:40:39;;;;;;;;;;;;;;;5.50;68.75;100941.52;1696931;83;20257;-62
2021/03/29 03:43:07;;;;;;;;;;;;;;;5.55;68.74;100955.16;1688921;83;20228;-60
2021/03/29 03:45:50;;;;;;;;;;;;;;;5.58;68.67;100949.97;1695517;83;21407;-62
2021/03/29 03:48:17;;;;;;;;;;;;;;;5.50;68.84;100950.83;1697586;83;20605;-64
2021/03/29 03:50:47;;;;;;;;;;;;;;;5.34;69.04;100961.52;1695631;83;20141;-64
2021/03/29 03:53:16;;;;;;;;;;;;;;;5.18;69.82;100965.87;1691340;84;20533;-63
2021/03/29 03:55:44;;;;;;;;;;;;;;;5.02;70.01;100975.16;1687943;82;20254;-61
2021/03/29 03:58:11;;;;;;;;;;;;;;;4.94;70.31;100974.67;1696823;83;21296;-63
2021/03/29 04:00:39;;;;;;;;;;;;;;;4.95;70.62;100975.48;1691806;84;20241;-64
2021/03/29 04:03:06;;;;;;;;;;;;;;;4.91;70.81;100978.48;1695377;83;20589;-63
2021/03/29 04:05:33;;;;;;;;;;;;;;;4.91;70.97;100978.99;1697209;83;20322;-61
2021/03/29 04:08:04;;;;;;;;;;;;;;;4.93;70.90;100982.81;1691675;83;20258;-64
2021/03/29 04:10:39;;;;;;;;;;;;;;;4.96;70.85;100990.45;1689097;83;21407;-62
2021/03/29 04:13:07;;;;;;;;;;;;;;;5.01;70.76;100996.93;1691165;84;20237;-63
2021/03/29 04:15:32;;;;;;;;;;;;;;;5.04;70.65;100995.27;1691575;84;20470;-60
2021/03/29 04:18:02;;;;;;;;;;;;;;;5.11;70.62;100999.44;1697826;83;20191;-60
2021/03/29 04:20:30;;;;;;;;;;;;;;;5.20;70.33;101004.25;1692404;84;20293;-61
2021/03/29 04:22:57;;;;;;;;;;;;;;;5.23;70.15;101005.23;1694294;83;21286;-61
2021/03/29 04:25:25;;;;;;;;;;;;;;;5.32;69.88;101007.39;1692449;83;20138;-63
2021/03/29 04:27:53;;;;;;;;;;;;;;;5.37;69.60;101005.05;1692471;83;20221;-61
2021/03/29 04:30:21;;;;;;;;;;;;;;;5.70;69.41;101008.99;1690127;84;20211;-64
2021/03/29 04:32:49;;;;;;;;;;;;;;;6.37;68.06;101015.74;1692550;84;20570;-63
2021/03/29 04:35:17;;;;;;;;;;;;;;;7.08;67.07;101016.93;1700121;83;20698;-63
2021/03/29 04:37:44;;;;;;;;;;;;;;;7.89;64.64;101018.47;1692503;84;20647;-63
2021/03/29 04:40:13;;;;;;;;;;;;;;;8.63;62.73;101027.41;1693858;84;20503;-63
2021/03/29 04:42:41;;;;;;;;;;;;;;;9.38;61.00;101025.23;1692166;83;20803;-64
2021/03/29 04:45:12;;;;;;;;;;;;;;;10.13;58.48;101026.85;1689386;84;20311;-61
2021/03/29 04:47:39;;;;;;;;;;;;;;;10.80;56.45;101034.61;1695582;82;22231;-65
2021/03/29 04:50:07;;;;;;;;;;;;;;;11.51;54.14;101027.01;1691786;83;20598;-59
2021/03/29 04:52:34;;;;;;;;;;;;;;;12.16;52.08;101028.95;1693363;83;20510;-59
2021/03/29 04:55:02;;;;;;;;;;;;;;;12.86;50.18;101034.93;1700716;83;20316;-60
2021/03/29 04:57:29;;;;;;;;;;;;;;;13.49;48.08;101034.06;1692265;82;20245;-60
2021/03/29 04:59:57;;;;;;;;;;;;;;;14.00;46.62;101040.16;1693868;83;21394;-59
2021/03/29 05:02:25;;;;;;;;;;;;;;;14.48;45.05;101044.77;1696141;83;20143;-60
2021/03/29 05:04:53;;;;;;;;;;;;;;;14.90;44.58;101046.74;1698173;83;20196;-64
2021/03/29 05:07:23;;;;;;;;;;;;;;;15.33;43.78;101048.88;1694441;83;20141;-63
2021/03/29 05:09:51;;;;;;;;;;;;;;;15.59;42.85;101055.18;1692041;84;20140;-64
2021/03/29 05:12:24;;;;;;;;;;;;;;;15.81;42.04;101053.27;1691344;84;22141;-66
2021/03/29 05:14:51;;;;;;;;;;;;;;;16.01;41.00;101052.88;1694686;84;20217;-63
2021/03/29 05:17:21;;;;;;;;;;;;;;;16.22;40.64;101050.61;1695649;83;20507;-64
2021/03/29 05:19:48;;;;;;;;;;;;;;;16.54;40.20;101055.57;1696479;83;20829;-64
2021/03/29 05:22:16;;;;;;;;;;;;;;;16.86;39.20;101060.47;1689821;84;20275;-65
2021/03/29 05:24:43;;;;;;;;;;;;;;;17.11;38.38;101058.80;1691807;84;21211;-65
2021/03/29 05:27:10;;;;;;;;;;;;;;;17.26;37.72;101059.05;1694833;83;20519;-64
2021/03/29 05:29:42;;;;;;;;;;;;;;;17.49;37.67;101062.12;1688606;84;20192;-64
2021/03/29 05:32:13;;;;;;;;;;;;;;;17.69;36.97;101067.02;1696041;83;20510;-64
2021/03/29 05:34:42;;;;;;;;;;;;;;;17.93;36.48;101063.31;1695674;83;20221;-66
2021/03/29 05:37:10;;;;;;;;;;;;;;;18.23;36.12;101064.27;1694463;83;21217;-68
2021/03/29 05:39:38;;;;;;;;;;;;;;;18.59;35.26;101071.45;1694302;83;20249;-66
2021/03/29 05:42:07;;;;;;;;;;;;;;;18.88;34.76;101075.33;1697493;83;20225;-69
2021/03/29 05:44:35;;;;;;;;;;;;;;;19.17;34.18;101079.11;1693800;84;20246;-64
2021/03/29 05:47:03;;;;;;;;;;;;;;;19.48;33.36;101084.28;1696056;83;20283;-67
2021/03/29 05:49:31;;;;;;;;;;;;;;;19.78;32.42;101084.23;1693444;83;21346;-67
2021/03/29 05:51:58;;;;;;;;;;;;;;;20.03;31.98;101084.11;1694671;83;20493;-65
2021/03/29 05:54:26;;;;;;;;;;;;;;;20.30;31.25;101083.95;1697849;83;20499;-65
2021/03/29 05:56:54;;;;;;;;;;;;;;;20.44;30.84;101082.38;1691947;84;20589;-65
2021/03/29 05:59:24;;;;;;;;;;;;;;;20.60;30.61;101087.89;1696140;83;20270;-66
2021/03/29 06:01:53;;;;;;;;;;;;;;;20.85;29.71;101091.77;1696656;83;22358;-66
2021/03/29 06:04:46;;;;;;;;;;;;;;;20.91;29.43;101083.90;1689257;84;20312;-65
2021/03/29 06:07:15;;;;;;;;;;;;;;;20.88;29.46;101092.06;1692658;83;20213;-66
2021/03/29 06:09:43;;;;;;;;;;;;;;;20.97;29.51;101092.34;1696458;83;20225;-66
2021/03/29 06:12:11;;;;;;;;;;;;;;;21.20;29.03;101095.11;1694351;84;20216;-65
2021/03/29 06:14:39;;;;;;;;;;;;;;;21.42;28.79;101095.36;1690539;84;21303;-66
2021/03/29 06:17:15;;;;;;;;;;;;;;;21.57;28.56;101099.48;1697150;83;20594;-65
2021/03/29 06:19:52;;;;;;;;;;;;;;;21.48;28.59;101106.01;1688386;83;20323;-66
2021/03/29 06:22:26;;;;;;;;;;;;;;;21.32;28.74;101107.10;1689752;84;20240;-65
2021/03/29 06:25:15;;;;;;;;;;;;;;;21.37;28.49;101102.19;1689718;84;20618;-65
2021/03/29 06:27:51;;;;;;;;;;;;;;;21.46;28.57;101108.17;1690687;84;21210;-66
2021/03/29 06:30:33;;;;;;;;;;;;;;;21.55;28.53;101108.47;1689753;84;20312;-65
2021/03/29 06:33:07;;;;;;;;;;;;;;;21.72;27.76;101115.02;1693051;83;20503;-65
2021/03/29 06:35:44;;;;;;;;;;;;;;;21.84;27.78;101117.45;1691508;84;20409;-65
2021/03/29 06:38:27;;;;;;;;;;;;;;;22.01;27.51;101125.31;1690832;84;20291;-65
2021/03/29 06:40:57;;;;;;;;;;;;;;;21.97;27.10;101128.34;1691799;83;22281;-65
2021/03/29 06:43:31;;;;;;;;;;;;;;;21.77;27.96;101128.63;1696004;83;20635;-66
2021/03/29 06:46:01;;;;;;;;;;;;;;;21.88;27.65;101126.17;1692730;84;20573;-67
2021/03/29 06:48:33;;;;;;;;;;;;;;;22.04;27.17;101135.70;1692560;84;20633;-67
2021/03/29 06:51:09;;;;;;;;;;;;;;;21.86;27.22;101132.98;1689400;83;20230;-68
2021/03/29 06:53:43;;;;;;;;;;;;;;;21.85;27.52;101132.19;1694380;84;21211;-69
2021/03/29 06:56:33;;;;;;;;;;;;;;;21.97;27.57;101138.70;1698230;82;20748;-67
2021/03/29 06:59:07;;;;;;;;;;;;;;;21.99;26.47;101146.06;1699214;82;20509;-67
2021/03/29 07:01:37;;;;;;;;;;;;;;;21.18;26.87;101147.70;1696473;84;20251;-68
2021/03/29 07:04:05;;;;;;;;;;;;;;;20.27;28.63;101149.81;1689290;82;21076;-68
2021/03/29 07:06:35;;;;;;;;;;;;;;;19.97;28.89;101151.28;1696987;82;22207;-69
2021/03/29 07:09:05;;;;;;;;;;;;;;;19.90;29.51;101155.58;1703516;82;20219;-68
2021/03/29 07:11:35;;;;;;;;;;;;;;;20.17;29.81;101156.04;1694684;83;20269;-68
2021/03/29 07:14:05;;;;;;;;;;;;;;;20.53;28.64;101165.73;1689978;84;20249;-67
2021/03/29 07:16:33;;;;;;;;;;;;;;;20.57;28.80;101164.12;1688541;84;20248;-67
2021/03/29 07:19:02;;;;;;;;;;;;;;;20.56;28.35;101163.84;1685683;84;21214;-68
2021/03/29 07:21:30;;;;;;;;;;;;;;;20.39;28.31;101157.24;1752991;81;20232;-67
2021/03/29 07:24:05;;;;;;;;;;;;;;;20.08;28.91;101172.05;1751121;81;20300;-68
2021/03/29 07:26:44;;;;;;;;;;;;;;;19.66;29.30;101174.70;1755978;81;20516;-67
2021/03/29 07:29:24;;;;;;;;;;;;;;;19.23;30.24;101178.66;1739599;81;20248;-67
2021/03/29 07:31:53;;;;;;;;;;;;;;;18.89;30.42;101187.80;1752908;81;21392;-69
2021/03/29 07:34:50;;;;;;;;;;;;;;;18.41;31.27;101189.87;1753480;81;20346;-66
2021/03/29 07:37:40;;;;;;;;;;;;;;;17.70;31.84;101192.58;1762053;79;20491;-67
2021/03/29 07:40:22;;;;;;;;;;;;;;;16.60;33.57;101194.80;1754916;81;20547;-66
2021/03/29 07:42:52;;;;;;;;;;;;;;;15.68;35.47;101194.00;1756452;81;20237;-67
2021/03/29 07:45:25;;;;;;;;;;;;;;;15.14;36.54;101204.23;1751360;80;22329;-67
2021/03/29 07:47:57;;;;;;;;;;;;;;;14.59;37.49;101209.64;1751829;80;20186;-67
2021/03/29 07:50:31;;;;;;;;;;;;;;;13.91;38.79;101215.36;1754792;81;20163;-66
2021/03/29 07:53:20;;;;;;;;;;;;;;;13.39;40.20;101213.64;1753812;81;20798;-66
2021/03/29 07:55:53;;;;;;;;;;;;;;;13.15;40.89;101211.97;1756014;79;20170;-68
2021/03/29 07:58:22;;;;;;;;;;;;;;;12.95;41.65;101217.96;1749526;81;22053;-68
2021/03/29 08:00:57;;;;;;;;;;;;;;;12.70;42.26;101220.00;1753936;79;20324;-68
2021/03/29 08:03:28;;;;;;;;;;;;;;;12.47;42.75;101229.06;1753612;81;20233;-68
2021/03/29 08:05:56;;;;;;;;;;;;;;;12.29;43.30;101221.66;1755981;81;20536;-67
2021/03/29 08:08:27;;;;;;;;;;;;;;;12.18;43.60;101227.15;1751822;81;20634;-65
2021/03/29 08:11:03;;;;;;;;;;;;;;;12.17;43.65;101230.86;1749247;81;21492;-66
2021/03/29 08:13:41;;;;;;;;;;;;;;;12.07;43.85;101236.64;1753862;81;20162;-67
2021/03/29 08:16:13;;;;;;;;;;;;;;;11.98;44.33;101236.02;1755787;81;20532;-67
2021/03/29 08:19:07;;;;;;;;;;;;;;;12.06;44.18;101241.73;1749607;81;20307;-67
2021/03/29 08:21:45;;;;;;;;;;;;;;;12.17;44.24;101233.02;1754706;81;20494;-67
2021/03/29 08:24:32;;;;;;;;;;;;;;;12.51;44.48;101236.50;1751476;81;22371;-66
2021/03/29 08:27:03;;;;;;;;;;;;;;;12.86;43.30;101236.20;1751068;81;20319;-68
2021/03/29 08:29:37;;;;;;;;;;;;;;;12.97;42.70;101240.94;1750292;81;20265;-67
2021/03/29 08:32:09;;;;;;;;;;;;;;;12.95;42.45;101246.22;1750439;81;20147;-67
2021/03/29 08:34:55;;;;;;;;;;;;;;;12.78;42.84;101238.62;1751962;81;20236;-68
2021/03/29 08:37:41;;;;;;;;;;;;;;;12.66;43.37;101236.28;1754081;81;21385;-67
2021/03/29 08:40:13;;;;;;;;;;;;;;;12.72;43.59;101238.62;1752978;81;20741;-67
2021/03/29 08:42:42;;;;;;;;;;;;;;;12.87;43.31;101233.83;1756251;81;20226;-70
2021/03/29 08:45:12;;;;;;;;;;;;;;;12.91;43.13;101236.41;1755418;81;20702;-69
2021/03/29 08:47:41;;;;;;;;;;;;;;;12.86;43.38;101241.59;1755555;81;20241;-68
2021/03/29 08:50:16;;;;;;;;;;;;;;;12.79;43.38;101238.09;1752636;81;22269;-67
2021/03/29 08:52:56;;;;;;;;;;;;;;;12.67;43.73;101240.61;1745025;81;20250;-67
2021/03/29 08:55:29;;;;;;;;;;;;;;;12.64;43.87;101241.03;1752567;81;20238;-66
2021/03/29 08:57:56;;;;;;;;;;;;;;;12.66;44.32;101228.22;1754308;81;20165;-65
2021/03/29 09:00:26;;;;;;;;;;;;;;;12.84;43.99;101235.61;1755472;81;20248;-67
2021/03/29 09:02:53;;;;;;;;;;;;;;;13.02;43.69;101239.48;1755832;81;22297;-69
2021/03/29 09:05:23;;;;;;;;;;;;;;;13.10;43.05;101240.07;1756373;81;20308;-64
2021/03/29 09:07:54;;;;;;;;;;;;;;;12.99;43.17;101235.88;1755084;79;20590;-65
2021/03/29 09:10:32;;;;;;;;;;;;;;;12.83;43.82;101240.67;1749144;81;20336;-65
2021/03/29 09:13:02;;;;;;;;;;;;;;;12.67;43.84;101240.61;1754820;81;20236;-69
2021/03/29 09:15:31;;;;;;;;;;;;;;;12.60;44.05;101253.24;1754908;81;21390;-66
2021/03/29 09:18:02;;;;;;;;;;;;;;;12.55;44.15;101255.22;1752688;81;20225;-67
2021/03/29 09:20:40;;;;;;;;;;;;;;;12.47;43.67;101244.70;1753658;81;20503;-67
2021/03/29 09:23:11;;;;;;;;;;;;;;;12.39;44.02;101244.38;1753662;81;20281;-67
2021/03/29 09:25:45;;;;;;;;;;;;;;;12.36;44.12;101254.21;1755815;81;20221;-67
2021/03/29 09:31:24;;;;;;;;;;;;;;;12.22;44.43;101249.38;1749687;81;20154;-65
2021/03/29 09:33:53;;;;;;;;;;;;;;;12.30;44.56;101250.20;1753643;81;20257;-67
2021/03/29 09:36:22;;;;;;;;;;;;;;;12.38;44.13;101252.16;1751367;81;20795;-67
2021/03/29 09:38:57;;;;;;;;;;;;;;;12.44;44.27;101261.26;1753381;81;20194;-64
2021/03/29 09:41:29;;;;;;;;;;;;;;;12.58;45.01;101256.14;1753548;81;20198;-66
2021/03/29 09:43:57;;;;;;;;;;;;;;;12.74;44.17;101258.91;1753861;81;20165;-64
2021/03/29 09:46:27;;;;;;;;;;;;;;;12.88;43.16;101254.34;1748785;80;20506;-66
2021/03/29 09:49:07;;;;;;;;;;;;;;;13.02;42.69;101252.94;1748899;80;20325;-63
2021/03/29 09:51:36;;;;;;;;;;;;;;;13.13;42.20;101257.14;1752394;79;20536;-64
2021/03/29 09:54:34;;;;;;;;;;;;;;;13.20;41.72;101253.59;1753571;79;21199;-64
2021/03/29 09:57:18;;;;;;;;;;;;;;;13.13;41.84;101250.41;1748387;80;20591;-65
2021/03/29 09:59:46;;;;;;;;;;;;;;;13.07;41.59;101251.27;1689368;84;20228;-63
2021/03/29 10:02:25;;;;;;;;;;;;;;;12.97;41.99;101264.34;1723521;82;20220;-64
2021/03/29 10:05:08;;;;;;;;;;;;;;;12.92;41.91;101270.34;1748761;81;20155;-65
2021/03/29 10:07:50;;;;;;;;;;;;;;;12.89;41.26;101257.31;1748593;81;20157;-65
2021/03/29 10:10:26;;;;;;;;;;;;;;;12.80;41.72;101271.52;1747739;80;20241;-63
2021/03/29 10:13:09;;;;;;;;;;;;;;;12.82;41.91;101267.80;1748689;81;20503;-62
2021/03/29 10:15:38;;;;;;;;;;;;;;;12.88;41.53;101277.20;1746149;80;20228;-62
2021/03/29 10:18:13;;;;;;;;;;;;;;;12.91;41.68;101270.05;1746633;81;20315;-62
2021/03/29 10:20:45;;;;;;;;;;;;;;;12.95;40.91;101266.41;1747774;80;21384;-63
2021/03/29 10:23:29;;;;;;;;;;;;;;;12.95;40.86;101269.09;1748231;80;20265;-62
2021/03/29 10:26:18;;;;;;;;;;;;;;;12.87;40.96;101269.34;1739885;80;20254;-63
2021/03/29 10:28:59;;;;;;;;;;;;;;;12.69;41.23;101266.80;1748242;80;20646;-63
2021/03/29 10:31:31;;;;;;;;;;;;;;;12.53;41.85;101275.28;1748264;80;20232;-63
2021/03/29 10:34:00;;;;;;;;;;;;;;;12.52;41.68;101269.09;1750612;80;21196;-62
2021/03/29 10:36:29;;;;;;;;;;;;;;;12.52;41.78;101273.66;1747750;80;20253;-62
2021/03/29 10:38:56;;;;;;;;;;;;;;;12.51;41.88;101273.34;1748945;80;20600;-62
2021/03/29 10:41:24;;;;;;;;;;;;;;;12.54;42.01;101267.53;1748707;80;20713;-63
2021/03/29 10:43:52;;;;;;;;;;;;;;;12.61;42.02;101271.86;1745608;80;20267;-63
2021/03/29 10:46:19;;;;;;;;;;;;;;;12.75;41.03;101278.55;1751435;81;22220;-63
2021/03/29 10:48:47;;;;;;;;;;;;;;;12.76;40.68;101278.38;1753187;81;20250;-62
2021/03/29 10:51:14;;;;;;;;;;;;;;;12.82;40.23;101275.86;1752614;81;20234;-62
2021/03/29 10:53:42;;;;;;;;;;;;;;;12.86;40.53;101282.48;1753276;81;20264;-62
2021/03/29 10:56:10;;;;;;;;;;;;;;;12.91;39.77;101281.31;1754853;79;20213;-63
2021/03/29 10:58:39;;;;;;;;;;;;;;;12.94;39.67;101281.73;1751337;81;20157;-66
2021/03/29 11:01:06;;;;;;;;;;;;;;;12.93;39.38;101286.80;1753315;81;20246;-63
2021/03/29 11:03:35;;;;;;;;;;;;;;;12.94;39.47;101291.16;1753737;81;20508;-64
2021/03/29 11:06:03;;;;;;;;;;;;;;;12.90;38.25;101279.16;1753698;81;20750;-62
2021/03/29 11:08:32;;;;;;;;;;;;;;;12.79;39.07;101277.95;1751467;81;20300;-62
2021/03/29 11:11:07;;;;;;;;;;;;;;;12.77;39.23;101287.27;1792208;78;20208;-63
2021/03/29 11:13:36;;;;;;;;;;;;;;;12.73;38.76;101283.33;1762811;80;20162;-63
2021/03/29 11:16:09;;;;;;;;;;;;;;;12.80;38.57;101293.03;1759151;80;20122;-62
2021/03/29 11:18:35;;;;;;;;;;;;;;;12.88;38.31;101287.13;1762502;80;20130;-64
2021/03/29 11:21:02;;;;;;;;;;;;;;;12.96;38.20;101278.83;1761612;80;20150;-63
2021/03/29 11:23:30;;;;;;;;;;;;;;;13.05;37.56;101278.90;1762746;80;20169;-63
2021/03/29 11:25:58;;;;;;;;;;;;;;;13.07;37.66;101277.34;1714982;83;20212;-62
2021/03/29 11:28:25;;;;;;;;;;;;;;;13.09;37.03;101273.41;1745422;82;21300;-65
2021/03/29 11:30:53;;;;;;;;;;;;;;;13.04;37.15;101277.77;1744985;82;20185;-63
2021/03/29 11:33:21;;;;;;;;;;;;;;;13.04;37.16;101271.85;1745201;81;20637;-63
2021/03/29 11:35:48;;;;;;;;;;;;;;;13.09;37.28;101275.28;1745734;82;20237;-62
2021/03/29 11:38:15;;;;;;;;;;;;;;;13.14;37.13;101275.45;1732911;82;20526;-63
2021/03/29 11:40:43;;;;;;;;;;;;;;;13.13;37.49;101275.98;1743977;82;21270;-63
2021/03/29 11:43:11;;;;;;;;;;;;;;;13.17;36.15;101276.90;1745233;82;20781;-64
2021/03/29 11:45:38;;;;;;;;;;;;;;;13.18;35.91;101282.07;1742442;82;20476;-64
2021/03/29 11:48:07;;;;;;;;;;;;;;;13.17;36.03;101275.02;1718478;83;20137;-62
2021/03/29 11:50:35;;;;;;;;;;;;;;;13.17;35.23;101274.20;1713749;83;20212;-63
2021/03/29 11:53:03;;;;;;;;;;;;;;;13.21;35.57;101278.13;1710853;83;22270;-62
2021/03/29 11:55:33;;;;;;;;;;;;;;;13.29;34.24;101281.41;1708090;83;20237;-62
2021/03/29 11:58:03;;;;;;;;;;;;;;;13.30;33.87;101283.58;1698291;83;20211;-62
2021/03/29 12:00:35;;;;;;;;;;;;;;;13.27;33.50;101279.97;1699257;84;20323;-63
2021/03/29 12:03:14;;;;;;;;;;;;;;;13.21;33.34;101280.30;1698377;84;20143;-64
2021/03/29 12:05:41;;;;;;;;;;;;;;;13.14;33.85;101278.95;1670102;84;21226;-62
2021/03/29 12:13:41;;;;;;;;;;;;;;;13.10;33.09;101284.48;1692933;84;20140;-62
2021/03/29 12:16:09;;;;;;;;;;;;;;;13.17;32.97;101287.14;1694514;84;20227;-63
2021/03/29 12:21:11;;;;;;;;;;;;;;;13.10;31.95;101289.88;1694147;84;20581;-64
2021/03/29 12:23:40;;;;;;;;;;;;;;;13.04;32.60;101289.34;1680267;84;20219;-63
2021/03/29 12:26:08;;;;;;;;;;;;;;;13.04;32.48;101289.88;1693937;84;20144;-63
2021/03/29 12:28:35;;;;;;;;;;;;;;;13.12;32.74;101280.23;1694014;84;20346;-64
2021/03/29 12:31:04;;;;;;;;;;;;;;;13.19;32.26;101282.39;1693983;84;21391;-62
2021/03/29 12:33:32;;;;;;;;;;;;;;;13.27;31.38;101280.78;1693990;84;20140;-66
2021/03/29 12:35:59;;;;;;;;;;;;;;;13.27;30.73;101290.20;1694195;84;20159;-63
2021/03/29 12:38:31;;;;;;;;;;;;;;;13.25;31.06;101284.72;1693963;84;20243;-63
2021/03/29 12:41:03;;;;;;;;;;;;;;;13.28;30.77;101292.37;1693877;84;20513;-65
2021/03/29 12:46:03;;;;;;;;;;;;;;;13.44;29.81;101289.74;1666173;84;20232;-63
2021/03/29 12:48:33;;;;;;;;;;;;;;;13.42;30.13;101291.84;1691457;84;20124;-63
2021/03/29 12:51:02;;;;;;;;;;;;;;;13.39;29.98;101291.73;1693872;84;20299;-62
2021/03/29 12:53:32;;;;;;;;;;;;;;;13.38;29.87;101293.30;1693915;84;20207;-62
2021/03/29 12:56:00;;;;;;;;;;;;;;;13.35;29.81;101295.89;1693916;83;21264;-64
2021/03/29 12:58:28;;;;;;;;;;;;;;;13.35;29.75;101295.08;1693935;84;20231;-62
2021/03/29 13:00:55;;;;;;;;;;;;;;;13.37;29.51;101295.67;1694116;84;20249;-62
2021/03/29 13:03:29;;;;;;;;;;;;;;;13.39;29.84;101298.47;1693946;84;20286;-64
2021/03/29 13:06:16;;;;;;;;;;;;;;;13.39;30.06;101293.09;1693548;84;20522;-63
2021/03/29 13:08:40;;;;;;;;;;;;;;;13.39;30.17;101297.66;1694009;83;21358;-63
2021/03/29 13:11:28;;;;;;;;;;;;;;;13.33;30.43;101297.95;1693816;84;20284;-64
2021/03/29 13:13:49;;;;;;;;;;;;;;;13.25;30.21;101301.72;1693640;84;20144;-63